createdAt,value
2018-11-06T00:01:22.642Z,254.90
2018-11-06T00:02:22.644Z,255.70
2018-11-06T00:03:28.868Z,267.10
2018-11-06T00:04:22.710Z,304.60
2018-11-06T00:05:32.868Z,284.10
2018-11-06T00:06:22.599Z,288.20
2018-11-06T00:07:25.602Z,299.20
2018-11-06T00:08:28.882Z,276.80
2018-11-06T00:09:22.631Z,235.40
2018-11-06T00:10:22.604Z,266.90
2018-11-06T00:11:22.470Z,304.80
2018-11-06T00:12:22.468Z,249.40
2018-11-06T00:13:22.464Z,283.90
2018-11-06T00:14:22.445Z,263.60
2018-11-06T00:15:22.551Z,264.70
2018-11-06T00:16:22.426Z,264.80
2018-11-06T00:17:22.480Z,238.40
2018-11-06T00:18:22.429Z,277.80
2018-11-06T00:19:22.415Z,244.20
2018-11-06T00:20:22.399Z,216.90
2018-11-06T00:21:23.623Z,275.10
2018-11-06T00:22:22.389Z,281.30
2018-11-06T00:23:22.354Z,273.00
2018-11-06T00:24:22.348Z,269.40
2018-11-06T00:25:55.616Z,271.40
2018-11-06T00:26:22.586Z,251.20
2018-11-06T00:27:22.379Z,264.20
2018-11-06T00:28:32.648Z,279.10
2018-11-06T00:29:22.372Z,271.40
2018-11-06T00:30:23.536Z,264.30
2018-11-06T00:33:12.190Z,268.50
2018-11-06T00:34:05.976Z,265.80
2018-11-06T00:35:08.913Z,273.00
2018-11-06T00:36:05.894Z,270.00
2018-11-06T00:37:06.085Z,280.40
2018-11-06T00:38:05.826Z,231.20
2018-11-06T00:39:05.806Z,270.30
2018-11-06T00:40:05.838Z,272.40
2018-11-06T00:41:05.805Z,289.80
2018-11-06T00:42:05.928Z,286.60
2018-11-06T00:43:05.751Z,282.90
2018-11-06T00:44:38.965Z,281.30
2018-11-06T00:45:05.827Z,284.60
2018-11-06T00:46:05.745Z,315.30
2018-11-06T00:47:12.030Z,246.20
2018-11-06T00:48:05.773Z,287.60
2018-11-06T00:49:05.723Z,270.60
2018-11-06T00:50:05.703Z,291.20
2018-11-06T00:51:05.692Z,288.60
2018-11-06T00:52:05.769Z,315.70
2018-11-06T00:53:05.683Z,283.00
2018-11-06T00:54:05.647Z,283.80
2018-11-06T00:55:05.645Z,277.00
2018-11-06T00:56:38.849Z,298.60
2018-11-06T00:57:05.628Z,283.80
2018-11-06T00:58:05.617Z,302.90
2018-11-06T00:59:05.620Z,287.00
2018-11-06T01:00:05.605Z,254.20
2018-11-06T01:01:05.583Z,267.00
2018-11-06T01:02:05.692Z,291.80
2018-11-06T01:03:05.554Z,279.50
2018-11-06T01:04:05.788Z,282.10
2018-11-06T01:05:05.768Z,296.00
2018-11-06T01:06:39.987Z,305.50
2018-11-06T01:07:24.769Z,290.80
2018-11-06T01:08:05.573Z,276.70
2018-11-06T01:09:05.556Z,271.60
2018-11-06T01:10:43.772Z,288.70
2018-11-06T01:11:05.730Z,311.70
2018-11-06T01:12:18.237Z,261.20
2018-11-06T01:14:04.409Z,275.00
2018-11-06T01:14:16.876Z,289.10
2018-11-06T01:15:41.178Z,320.00
2018-11-06T01:16:06.532Z,259.60
2018-11-06T01:17:06.456Z,258.30
2018-11-06T01:18:06.456Z,290.00
2018-11-06T01:19:06.463Z,266.20
2018-11-06T01:20:06.423Z,254.90
2018-11-06T01:21:07.696Z,280.90
2018-11-06T01:22:06.409Z,253.50
2018-11-06T01:23:06.435Z,258.50
2018-11-06T01:24:06.557Z,272.60
2018-11-06T01:25:06.399Z,252.70
2018-11-06T01:26:06.394Z,250.00
2018-11-06T01:27:12.704Z,277.40
2018-11-06T01:28:07.641Z,273.20
2018-11-06T01:29:09.424Z,258.50
2018-11-06T01:30:06.425Z,199.00
2018-11-06T01:31:06.392Z,250.80
2018-11-06T01:32:06.589Z,257.30
2018-11-06T01:33:39.581Z,260.20
2018-11-06T01:34:06.557Z,234.50
2018-11-06T01:35:06.348Z,239.00
2018-11-06T01:36:06.531Z,242.00
2018-11-06T01:37:09.337Z,271.50
2018-11-06T01:38:07.492Z,236.60
2018-11-06T01:39:11.307Z,255.80
2018-11-06T01:40:06.344Z,232.50
2018-11-06T01:41:06.277Z,270.40
2018-11-06T01:42:06.220Z,246.90
2018-11-06T01:43:06.215Z,204.70
2018-11-06T01:44:06.199Z,256.60
2018-11-06T01:45:06.451Z,273.30
2018-11-06T01:46:06.296Z,286.00
2018-11-06T01:47:06.159Z,263.70
2018-11-06T01:48:06.177Z,281.10
2018-11-06T01:49:06.448Z,266.20
2018-11-06T01:50:07.594Z,308.70
2018-11-06T01:51:06.184Z,291.70
2018-11-06T01:52:40.781Z,297.70
2018-11-06T01:53:06.381Z,284.30
2018-11-06T01:54:06.357Z,266.30
2018-11-06T01:55:07.592Z,293.70
2018-11-06T01:56:06.142Z,275.80
2018-11-06T01:57:06.120Z,272.70
2018-11-06T01:58:06.317Z,246.70
2018-11-06T01:59:07.305Z,258.80
2018-11-06T02:01:54.760Z,271.80
2018-11-06T02:02:49.619Z,255.70
2018-11-06T02:03:49.591Z,272.10
2018-11-06T02:04:49.585Z,264.10
2018-11-06T02:05:49.592Z,237.30
2018-11-06T02:06:49.728Z,298.70
2018-11-06T02:07:49.561Z,267.00
2018-11-06T02:08:50.852Z,242.40
2018-11-06T02:09:49.562Z,307.80
2018-11-06T02:10:49.584Z,258.80
2018-11-06T02:11:49.707Z,265.60
2018-11-06T02:12:49.508Z,261.20
2018-11-06T02:13:50.750Z,273.30
2018-11-06T02:14:49.744Z,286.10
2018-11-06T02:15:49.733Z,289.60
2018-11-06T02:18:36.303Z,275.10
2018-11-06T02:19:34.473Z,286.00
2018-11-06T02:20:34.659Z,264.30
2018-11-06T02:21:33.442Z,283.70
2018-11-06T02:22:34.647Z,284.40
2018-11-06T02:23:33.434Z,289.00
2018-11-06T02:24:52.406Z,267.40
2018-11-06T02:25:36.281Z,268.60
2018-11-06T02:26:34.404Z,276.00
2018-11-06T02:27:33.178Z,277.20
2018-11-06T02:28:33.352Z,274.90
2018-11-06T02:29:33.104Z,283.10
2018-11-06T02:30:33.097Z,265.90
2018-11-06T02:31:33.080Z,277.10
2018-11-06T02:32:33.116Z,261.80
2018-11-06T02:33:33.059Z,301.10
2018-11-06T02:34:33.318Z,251.20
2018-11-06T02:35:33.064Z,257.40
2018-11-06T02:36:33.046Z,238.10
2018-11-06T02:37:33.033Z,261.90
2018-11-06T02:38:33.011Z,268.10
2018-11-06T02:39:33.175Z,298.30
2018-11-06T02:40:32.990Z,255.50
2018-11-06T02:41:32.984Z,281.70
2018-11-06T02:42:32.996Z,274.40
2018-11-06T02:43:32.970Z,194.70
2018-11-06T02:44:32.960Z,279.00
2018-11-06T02:45:32.950Z,244.80
2018-11-06T02:46:32.953Z,266.40
2018-11-06T02:47:32.938Z,266.60
2018-11-06T02:48:32.915Z,274.70
2018-11-06T02:49:33.025Z,281.70
2018-11-06T02:50:32.889Z,243.90
2018-11-06T02:51:32.877Z,309.10
2018-11-06T02:52:32.944Z,331.20
2018-11-06T02:53:32.864Z,285.60
2018-11-06T02:54:32.852Z,312.80
2018-11-06T02:55:32.871Z,300.00
2018-11-06T02:56:37.923Z,289.70
2018-11-06T02:57:32.834Z,261.80
2018-11-06T02:58:32.813Z,310.90
2018-11-06T02:59:32.784Z,282.70
2018-11-06T03:00:32.799Z,283.30
2018-11-06T03:01:32.767Z,295.00
2018-11-06T03:02:32.779Z,281.20
2018-11-06T03:03:32.771Z,282.70
2018-11-06T03:04:32.798Z,292.10
2018-11-06T03:05:32.795Z,259.60
2018-11-06T03:06:32.735Z,279.80
2018-11-06T03:07:32.761Z,271.30
2018-11-06T03:08:32.685Z,266.50
2018-11-06T03:09:32.683Z,256.70
2018-11-06T03:10:32.822Z,265.30
2018-11-06T03:11:32.656Z,275.30
2018-11-06T03:12:32.678Z,281.60
2018-11-06T03:13:32.635Z,258.70
2018-11-06T03:14:32.656Z,285.00
2018-11-06T03:15:32.684Z,245.10
2018-11-06T03:16:32.631Z,259.50
2018-11-06T03:17:32.623Z,266.00
2018-11-06T03:18:32.609Z,285.30
2018-11-06T03:19:32.620Z,285.50
2018-11-06T03:20:32.576Z,265.00
2018-11-06T03:21:32.596Z,280.10
2018-11-06T03:22:32.568Z,272.30
2018-11-06T03:23:32.557Z,294.00
2018-11-06T03:24:32.536Z,239.70
2018-11-06T03:25:32.642Z,287.40
2018-11-06T03:26:32.516Z,281.50
2018-11-06T03:27:32.524Z,290.70
2018-11-06T03:28:32.511Z,268.90
2018-11-06T03:29:32.480Z,244.50
2018-11-06T03:30:32.470Z,301.60
2018-11-06T03:31:32.454Z,324.50
2018-11-06T03:32:32.467Z,278.70
2018-11-06T03:33:32.503Z,280.00
2018-11-06T03:34:32.445Z,264.30
2018-11-06T03:35:32.438Z,276.20
2018-11-06T03:36:32.423Z,297.40
2018-11-06T03:37:32.414Z,289.20
2018-11-06T03:38:32.420Z,292.70
2018-11-06T03:39:32.383Z,278.70
2018-11-06T03:40:32.400Z,279.80
2018-11-06T03:41:32.517Z,312.30
2018-11-06T03:42:32.348Z,294.70
2018-11-06T03:43:32.359Z,302.90
2018-11-06T03:44:32.347Z,314.00
2018-11-06T03:45:32.324Z,329.00
2018-11-06T03:46:32.328Z,287.50
2018-11-06T03:47:32.608Z,280.00
2018-11-06T03:48:32.342Z,309.60
2018-11-06T03:49:32.297Z,314.20
2018-11-06T03:50:32.288Z,302.00
2018-11-06T03:51:32.268Z,319.80
2018-11-06T03:52:32.276Z,299.70
2018-11-06T03:53:32.249Z,314.10
2018-11-06T03:54:32.280Z,307.10
2018-11-06T03:55:32.238Z,281.40
2018-11-06T03:56:32.215Z,271.30
2018-11-06T03:57:32.220Z,278.90
2018-11-06T03:58:32.446Z,283.40
2018-11-06T03:59:32.194Z,270.40
2018-11-06T04:00:32.265Z,261.80
2018-11-06T04:01:32.151Z,265.50
2018-11-06T04:02:32.164Z,271.10
2018-11-06T04:03:32.186Z,295.70
2018-11-06T04:04:32.168Z,298.70
2018-11-06T04:05:32.109Z,299.10
2018-11-06T04:06:32.122Z,306.60
2018-11-06T04:07:32.109Z,320.30
2018-11-06T04:08:32.086Z,267.80
2018-11-06T04:09:32.070Z,284.50
2018-11-06T04:10:32.087Z,315.10
2018-11-06T04:11:32.064Z,272.40
2018-11-06T04:12:32.031Z,259.20
2018-11-06T04:13:32.045Z,273.70
2018-11-06T04:14:32.015Z,279.70
2018-11-06T04:15:32.019Z,296.70
2018-11-06T04:16:32.009Z,308.80
2018-11-06T04:17:32.010Z,288.90
2018-11-06T04:18:31.991Z,242.50
2018-11-06T04:19:31.964Z,306.80
2018-11-06T04:20:31.956Z,275.40
2018-11-06T04:21:31.942Z,296.10
2018-11-06T04:22:31.976Z,298.10
2018-11-06T04:23:31.939Z,319.20
2018-11-06T04:24:31.942Z,275.50
2018-11-06T04:25:31.916Z,285.60
2018-11-06T04:26:31.916Z,284.50
2018-11-06T04:27:31.905Z,289.20
2018-11-06T04:28:31.898Z,293.40
2018-11-06T04:29:31.885Z,283.80
2018-11-06T04:30:31.853Z,302.90
2018-11-06T04:31:31.864Z,271.30
2018-11-06T04:32:31.838Z,273.50
2018-11-06T04:33:31.846Z,311.00
2018-11-06T04:34:31.948Z,270.90
2018-11-06T04:35:31.807Z,295.10
2018-11-06T04:36:31.779Z,272.80
2018-11-06T04:37:31.839Z,313.60
2018-11-06T04:38:31.773Z,310.80
2018-11-06T04:39:31.788Z,289.40
2018-11-06T04:40:31.739Z,244.70
2018-11-06T04:41:31.730Z,298.00
2018-11-06T04:42:31.730Z,270.40
2018-11-06T04:43:31.741Z,284.70
2018-11-06T04:44:31.708Z,293.30
2018-11-06T04:45:31.969Z,280.80
2018-11-06T04:46:31.703Z,249.00
2018-11-06T04:47:31.672Z,265.40
2018-11-06T04:48:31.676Z,254.10
2018-11-06T04:49:31.712Z,256.20
2018-11-06T04:50:31.667Z,244.70
2018-11-06T04:51:31.641Z,261.90
2018-11-06T04:52:31.636Z,253.50
2018-11-06T04:53:31.643Z,267.20
2018-11-06T04:54:31.618Z,252.70
2018-11-06T04:55:31.606Z,271.90
2018-11-06T04:56:31.610Z,294.70
2018-11-06T04:57:31.624Z,237.30
2018-11-06T04:58:31.589Z,238.50
2018-11-06T04:59:31.548Z,257.30
2018-11-06T05:00:31.561Z,272.50
2018-11-06T05:01:31.805Z,261.40
2018-11-06T05:02:31.521Z,201.10
2018-11-06T05:03:31.524Z,259.40
2018-11-06T05:04:31.518Z,263.40
2018-11-06T05:05:31.502Z,265.40
2018-11-06T05:06:31.546Z,245.80
2018-11-06T05:07:31.476Z,229.10
2018-11-06T05:08:31.465Z,242.50
2018-11-06T05:09:31.508Z,260.30
2018-11-06T05:10:31.466Z,266.00
2018-11-06T05:11:31.437Z,256.00
2018-11-06T05:12:31.424Z,257.00
2018-11-06T05:13:31.416Z,272.90
2018-11-06T05:14:31.395Z,287.00
2018-11-06T05:15:31.385Z,278.20
2018-11-06T05:16:31.370Z,275.70
2018-11-06T05:17:31.379Z,273.90
2018-11-06T05:18:31.657Z,247.70
2018-11-06T05:19:31.399Z,250.80
2018-11-06T05:20:31.328Z,257.10
2018-11-06T05:21:31.343Z,252.40
2018-11-06T05:22:31.335Z,227.00
2018-11-06T05:23:31.317Z,251.10
2018-11-06T05:24:31.340Z,276.30
2018-11-06T05:25:31.383Z,233.90
2018-11-06T05:26:31.276Z,281.90
2018-11-06T05:27:31.369Z,282.20
2018-11-06T05:28:31.239Z,246.70
2018-11-06T05:29:31.245Z,248.50
2018-11-06T05:30:31.247Z,246.30
2018-11-06T05:31:31.233Z,256.30
2018-11-06T05:32:31.217Z,243.40
2018-11-06T05:33:31.193Z,254.10
2018-11-06T05:34:31.218Z,256.40
2018-11-06T05:35:31.186Z,246.10
2018-11-06T05:36:31.170Z,247.10
2018-11-06T05:37:31.168Z,276.70
2018-11-06T05:38:31.150Z,242.40
2018-11-06T05:39:31.178Z,266.50
2018-11-06T05:40:31.120Z,234.80
2018-11-06T05:41:31.123Z,257.60
2018-11-06T05:42:31.113Z,302.60
2018-11-06T05:43:31.091Z,277.70
2018-11-06T05:44:31.109Z,270.20
2018-11-06T05:45:31.118Z,252.90
2018-11-06T05:46:31.071Z,273.10
2018-11-06T05:47:31.065Z,269.10
2018-11-06T05:48:31.057Z,247.00
2018-11-06T05:49:31.058Z,241.80
2018-11-06T05:50:31.021Z,274.20
2018-11-06T05:51:31.025Z,261.40
2018-11-06T05:52:31.048Z,256.50
2018-11-06T05:53:30.980Z,289.90
2018-11-06T05:54:30.993Z,254.60
2018-11-06T05:55:30.969Z,245.20
2018-11-06T05:56:30.945Z,254.50
2018-11-06T05:57:30.965Z,240.10
2018-11-06T05:58:30.949Z,276.70
2018-11-06T05:59:30.934Z,275.40
2018-11-06T06:00:30.996Z,251.40
2018-11-06T06:01:31.018Z,262.80
2018-11-06T06:02:30.911Z,278.10
2018-11-06T06:03:30.868Z,261.80
2018-11-06T06:04:30.895Z,266.60
2018-11-06T06:05:30.879Z,243.30
2018-11-06T06:06:30.860Z,269.90
2018-11-06T06:07:30.864Z,269.90
2018-11-06T06:08:30.843Z,269.70
2018-11-06T06:09:30.840Z,252.00
2018-11-06T06:10:30.818Z,243.00
2018-11-06T06:11:30.806Z,279.80
2018-11-06T06:12:30.789Z,265.00
2018-11-06T06:13:30.790Z,261.90
2018-11-06T06:14:30.780Z,227.40
2018-11-06T06:15:30.764Z,252.20
2018-11-06T06:16:30.774Z,249.30
2018-11-06T06:17:30.832Z,297.20
2018-11-06T06:18:30.739Z,277.20
2018-11-06T06:19:30.742Z,250.50
2018-11-06T06:20:30.716Z,220.30
2018-11-06T06:21:30.708Z,261.50
2018-11-06T06:22:30.768Z,244.30
2018-11-06T06:23:30.692Z,235.20
2018-11-06T06:24:30.679Z,259.50
2018-11-06T06:25:30.662Z,247.20
2018-11-06T06:26:30.645Z,257.90
2018-11-06T06:27:30.628Z,235.90
2018-11-06T06:28:30.725Z,292.20
2018-11-06T06:29:30.622Z,267.60
2018-11-06T06:30:30.601Z,235.50
2018-11-06T06:31:30.595Z,259.60
2018-11-06T06:32:30.582Z,255.30
2018-11-06T06:33:30.574Z,226.50
2018-11-06T06:34:30.644Z,270.90
2018-11-06T06:35:30.571Z,261.60
2018-11-06T06:36:30.549Z,241.10
2018-11-06T06:37:30.539Z,262.70
2018-11-06T06:38:30.834Z,252.50
2018-11-06T06:39:30.504Z,240.30
2018-11-06T06:40:30.498Z,287.90
2018-11-06T06:41:30.503Z,238.40
2018-11-06T06:42:30.481Z,224.90
2018-11-06T06:43:30.487Z,229.00
2018-11-06T06:44:30.466Z,211.30
2018-11-06T06:45:30.456Z,240.90
2018-11-06T06:46:30.492Z,285.70
2018-11-06T06:47:30.444Z,232.30
2018-11-06T06:48:30.420Z,224.00
2018-11-06T06:49:30.402Z,238.90
2018-11-06T06:50:30.384Z,208.30
2018-11-06T06:51:30.379Z,250.60
2018-11-06T06:52:30.368Z,259.20
2018-11-06T06:53:30.371Z,245.80
2018-11-06T06:54:30.630Z,260.50
2018-11-06T06:55:30.339Z,241.70
2018-11-06T06:56:30.328Z,248.00
2018-11-06T06:57:30.312Z,222.40
2018-11-06T06:58:30.311Z,249.90
2018-11-06T06:59:30.295Z,276.20
2018-11-06T07:00:30.292Z,255.80
2018-11-06T07:01:30.299Z,238.40
2018-11-06T07:02:30.282Z,226.40
2018-11-06T07:03:30.234Z,223.30
2018-11-06T07:04:30.227Z,228.60
2018-11-06T07:05:30.254Z,228.60
2018-11-06T07:06:30.228Z,222.00
2018-11-06T07:07:30.216Z,234.30
2018-11-06T07:08:30.208Z,218.60
2018-11-06T07:09:30.216Z,211.40
2018-11-06T07:10:30.278Z,229.80
2018-11-06T07:11:30.178Z,263.60
2018-11-06T07:12:30.159Z,229.10
2018-11-06T07:13:30.157Z,222.70
2018-11-06T07:14:30.197Z,237.40
2018-11-06T07:15:30.137Z,234.00
2018-11-06T07:16:30.109Z,226.40
2018-11-06T07:17:30.143Z,214.00
2018-11-06T07:18:30.147Z,210.70
2018-11-06T07:19:30.083Z,248.00
2018-11-06T07:20:30.191Z,234.00
2018-11-06T07:21:30.084Z,238.00
2018-11-06T07:22:30.077Z,210.20
2018-11-06T07:23:30.047Z,201.30
2018-11-06T07:24:30.049Z,203.10
2018-11-06T07:25:30.345Z,243.20
2018-11-06T07:26:30.035Z,233.90
2018-11-06T07:27:29.997Z,226.80
2018-11-06T07:28:29.997Z,195.80
2018-11-06T07:29:30.007Z,234.30
2018-11-06T07:30:30.027Z,198.00
2018-11-06T07:31:29.991Z,241.80
2018-11-06T07:32:29.932Z,187.10
2018-11-06T07:33:29.934Z,208.00
2018-11-06T07:34:29.948Z,236.60
2018-11-06T07:35:29.997Z,233.90
2018-11-06T07:36:30.187Z,197.30
2018-11-06T07:37:29.906Z,223.80
2018-11-06T07:38:29.916Z,229.80
2018-11-06T07:39:29.905Z,203.30
2018-11-06T07:40:29.916Z,189.40
2018-11-06T07:41:29.875Z,212.60
2018-11-06T07:42:29.855Z,211.20
2018-11-06T07:43:29.846Z,193.80
2018-11-06T07:44:29.849Z,199.30
2018-11-06T07:45:29.804Z,209.90
2018-11-06T07:46:29.862Z,191.20
2018-11-06T07:47:29.797Z,224.70
2018-11-06T07:48:29.816Z,219.70
2018-11-06T07:49:29.776Z,215.40
2018-11-06T07:50:29.893Z,210.30
2018-11-06T07:51:29.772Z,225.90
2018-11-06T07:52:29.861Z,203.40
2018-11-06T07:53:29.800Z,253.20
2018-11-06T07:54:29.746Z,208.10
2018-11-06T07:55:29.777Z,218.30
2018-11-06T07:56:29.732Z,233.60
2018-11-06T07:57:29.711Z,211.20
2018-11-06T07:58:29.692Z,211.00
2018-11-06T07:59:29.684Z,219.70
2018-11-06T08:00:29.668Z,203.00
2018-11-06T08:01:29.652Z,206.90
2018-11-06T08:02:29.646Z,216.30
2018-11-06T08:03:29.651Z,225.10
2018-11-06T08:04:29.679Z,208.00
2018-11-06T08:05:29.623Z,220.80
2018-11-06T08:06:29.665Z,221.10
2018-11-06T08:07:29.581Z,221.30
2018-11-06T08:08:29.630Z,221.20
2018-11-06T08:09:29.625Z,230.70
2018-11-06T08:10:29.556Z,225.50
2018-11-06T08:11:29.611Z,220.70
2018-11-06T08:12:29.537Z,224.10
2018-11-06T08:13:29.518Z,204.90
2018-11-06T08:14:29.554Z,232.40
2018-11-06T08:15:29.523Z,230.10
2018-11-06T08:16:29.493Z,221.40
2018-11-06T08:17:29.542Z,182.80
2018-11-06T08:18:29.472Z,235.00
2018-11-06T08:19:29.475Z,201.60
2018-11-06T08:20:29.477Z,239.80
2018-11-06T08:21:29.457Z,246.90
2018-11-06T08:22:29.453Z,193.80
2018-11-06T08:23:29.457Z,231.10
2018-11-06T08:24:29.426Z,226.50
2018-11-06T08:25:29.407Z,214.50
2018-11-06T08:26:29.388Z,216.10
2018-11-06T08:27:29.429Z,233.50
2018-11-06T08:28:29.361Z,199.50
2018-11-06T08:29:29.387Z,206.80
2018-11-06T08:30:29.434Z,214.80
2018-11-06T08:31:29.582Z,188.00
2018-11-06T08:32:29.681Z,217.30
2018-11-06T08:33:29.323Z,216.10
2018-11-06T08:34:29.307Z,187.60
2018-11-06T08:35:29.305Z,223.30
2018-11-06T08:36:29.316Z,201.60
2018-11-06T08:37:29.275Z,243.20
2018-11-06T08:38:29.330Z,226.00
2018-11-06T08:39:29.288Z,239.10
2018-11-06T08:40:29.272Z,228.70
2018-11-06T08:41:29.247Z,221.20
2018-11-06T08:42:29.326Z,229.60
2018-11-06T08:43:29.221Z,220.50
2018-11-06T08:44:29.213Z,210.80
2018-11-06T08:45:29.220Z,198.90
2018-11-06T08:46:29.202Z,232.90
2018-11-06T08:47:29.236Z,223.80
2018-11-06T08:48:29.178Z,240.80
2018-11-06T08:49:29.149Z,224.70
2018-11-06T08:50:29.164Z,211.60
2018-11-06T08:51:29.136Z,194.40
2018-11-06T08:52:29.129Z,223.80
2018-11-06T08:53:29.249Z,204.00
2018-11-06T08:54:29.139Z,223.50
2018-11-06T08:55:29.121Z,189.70
2018-11-06T08:56:29.098Z,195.50
2018-11-06T08:57:29.094Z,187.90
2018-11-06T08:58:29.075Z,219.20
2018-11-06T08:59:29.080Z,211.20
2018-11-06T09:00:29.064Z,214.30
2018-11-06T09:01:29.067Z,210.60
2018-11-06T09:02:29.055Z,210.20
2018-11-06T09:03:29.028Z,225.10
2018-11-06T09:04:29.076Z,206.80
2018-11-06T09:05:29.057Z,214.20
2018-11-06T09:06:28.970Z,222.10
2018-11-06T09:07:29.008Z,201.20
2018-11-06T09:08:28.978Z,194.00
2018-11-06T09:09:29.003Z,212.20
2018-11-06T09:10:29.018Z,215.40
2018-11-06T09:11:28.983Z,202.00
2018-11-06T09:12:28.919Z,213.70
2018-11-06T09:13:28.928Z,237.90
2018-11-06T09:14:28.920Z,221.40
2018-11-06T09:15:28.923Z,226.50
2018-11-06T09:16:28.911Z,194.90
2018-11-06T09:17:28.895Z,203.40
2018-11-06T09:18:28.872Z,201.10
2018-11-06T09:19:28.862Z,200.70
2018-11-06T09:20:28.848Z,207.40
2018-11-06T09:21:28.848Z,216.10
2018-11-06T09:22:28.853Z,193.20
2018-11-06T09:23:28.818Z,184.50
2018-11-06T09:24:28.835Z,188.60
2018-11-06T09:25:28.822Z,205.80
2018-11-06T09:26:28.849Z,162.60
2018-11-06T09:27:28.810Z,183.80
2018-11-06T09:28:28.796Z,182.40
2018-11-06T09:29:28.786Z,170.90
2018-11-06T09:30:28.806Z,180.80
2018-11-06T09:31:28.770Z,199.30
2018-11-06T09:32:28.757Z,172.30
2018-11-06T09:33:28.739Z,186.10
2018-11-06T09:34:28.729Z,190.90
2018-11-06T09:35:28.730Z,168.30
2018-11-06T09:36:28.711Z,178.40
2018-11-06T09:37:28.717Z,183.50
2018-11-06T09:38:28.666Z,177.40
2018-11-06T09:39:28.811Z,195.60
2018-11-06T09:41:28.747Z,182.30
2018-11-06T09:42:28.637Z,189.20
2018-11-06T09:43:28.660Z,193.10
2018-11-06T09:44:28.631Z,159.70
2018-11-06T09:45:28.639Z,165.70
2018-11-06T09:46:28.609Z,175.30
2018-11-06T09:47:28.584Z,177.20
2018-11-06T09:48:28.590Z,188.30
2018-11-06T09:49:28.570Z,170.90
2018-11-06T09:50:28.571Z,204.70
2018-11-06T09:51:28.586Z,176.60
2018-11-06T09:52:28.558Z,171.10
2018-11-06T09:53:28.561Z,158.00
2018-11-06T09:54:28.549Z,151.60
2018-11-06T09:55:28.625Z,163.80
2018-11-06T09:56:28.493Z,192.10
2018-11-06T09:57:28.546Z,199.40
2018-11-06T09:58:28.514Z,155.50
2018-11-06T09:59:28.492Z,163.80
2018-11-06T10:00:28.464Z,186.80
2018-11-06T10:01:28.708Z,166.60
2018-11-06T10:02:28.471Z,168.00
2018-11-06T10:03:28.463Z,184.30
2018-11-06T10:04:28.470Z,187.30
2018-11-06T10:05:28.475Z,186.90
2018-11-06T10:06:28.517Z,173.40
2018-11-06T10:07:28.545Z,182.90
2018-11-06T10:08:28.392Z,168.20
2018-11-06T10:09:28.409Z,174.70
2018-11-06T10:10:28.409Z,182.60
2018-11-06T10:11:28.418Z,172.80
2018-11-06T10:12:28.415Z,211.30
2018-11-06T10:13:28.475Z,191.90
2018-11-06T10:14:28.366Z,162.60
2018-11-06T10:15:28.397Z,217.60
2018-11-06T10:16:28.316Z,172.70
2018-11-06T10:17:28.321Z,184.60
2018-11-06T10:18:28.297Z,178.10
2018-11-06T10:19:28.298Z,186.10
2018-11-06T10:20:28.312Z,184.40
2018-11-06T10:21:28.267Z,192.60
2018-11-06T10:22:28.247Z,197.00
2018-11-06T10:23:28.255Z,164.20
2018-11-06T10:24:28.253Z,167.20
2018-11-06T10:25:28.290Z,176.60
2018-11-06T10:26:28.233Z,175.30
2018-11-06T10:27:28.243Z,147.00
2018-11-06T10:28:28.222Z,176.90
2018-11-06T10:29:28.317Z,188.00
2018-11-06T10:30:28.190Z,181.30
2018-11-06T10:31:28.203Z,153.10
2018-11-06T10:32:28.181Z,209.10
2018-11-06T10:33:28.155Z,189.40
2018-11-06T10:34:28.161Z,202.90
2018-11-06T10:35:28.171Z,172.40
2018-11-06T10:36:28.137Z,183.20
2018-11-06T10:37:28.152Z,175.70
2018-11-06T10:38:28.115Z,167.30
2018-11-06T10:39:28.102Z,203.90
2018-11-06T10:40:28.140Z,181.00
2018-11-06T10:41:28.103Z,178.70
2018-11-06T10:42:28.071Z,167.20
2018-11-06T10:43:28.066Z,175.70
2018-11-06T10:44:28.101Z,198.00
2018-11-06T10:45:28.178Z,158.20
2018-11-06T10:46:28.042Z,174.70
2018-11-06T10:47:28.035Z,183.90
2018-11-06T10:48:28.090Z,180.40
2018-11-06T10:49:28.038Z,198.80
2018-11-06T10:50:28.020Z,193.70
2018-11-06T10:51:28.004Z,212.20
2018-11-06T10:52:27.995Z,181.20
2018-11-06T10:53:27.991Z,190.00
2018-11-06T10:54:27.965Z,209.20
2018-11-06T10:55:28.067Z,194.90
2018-11-06T10:56:27.969Z,180.80
2018-11-06T10:57:27.991Z,195.60
2018-11-06T10:58:27.938Z,178.50
2018-11-06T10:59:27.973Z,207.60
2018-11-06T11:00:27.969Z,183.60
2018-11-06T11:01:27.907Z,199.50
2018-11-06T11:02:27.948Z,210.20
2018-11-06T11:03:27.893Z,180.50
2018-11-06T11:04:27.900Z,194.90
2018-11-06T11:05:28.023Z,207.60
2018-11-06T11:06:27.913Z,175.10
2018-11-06T11:07:27.871Z,180.20
2018-11-06T11:08:27.904Z,189.30
2018-11-06T11:09:27.843Z,194.20
2018-11-06T11:10:27.854Z,139.20
2018-11-06T11:11:27.808Z,158.80
2018-11-06T11:12:27.832Z,187.10
2018-11-06T11:13:27.858Z,177.20
2018-11-06T11:14:27.793Z,186.40
2018-11-06T11:15:27.781Z,174.10
2018-11-06T11:16:27.893Z,163.30
2018-11-06T11:17:27.777Z,200.10
2018-11-06T11:18:27.771Z,174.10
2018-11-06T11:19:27.777Z,147.80
2018-11-06T11:20:27.750Z,141.60
2018-11-06T11:21:27.740Z,161.90
2018-11-06T11:22:27.825Z,182.10
2018-11-06T11:23:27.747Z,195.90
2018-11-06T11:24:27.725Z,154.50
2018-11-06T11:25:27.734Z,140.10
2018-11-06T11:26:27.711Z,183.60
2018-11-06T11:27:27.702Z,180.10
2018-11-06T11:28:27.682Z,163.10
2018-11-06T11:29:27.679Z,190.30
2018-11-06T11:30:27.647Z,179.90
2018-11-06T11:31:27.715Z,202.10
2018-11-06T11:32:27.737Z,177.00
2018-11-06T11:33:27.653Z,155.20
2018-11-06T11:34:27.621Z,155.40
2018-11-06T11:35:27.665Z,140.70
2018-11-06T11:36:27.617Z,170.90
2018-11-06T11:37:27.651Z,171.70
2018-11-06T11:38:27.598Z,182.80
2018-11-06T11:39:27.580Z,194.10
2018-11-06T11:40:27.588Z,154.60
2018-11-06T11:41:27.574Z,206.80
2018-11-06T11:42:27.564Z,148.50
2018-11-06T11:43:27.558Z,135.20
2018-11-06T11:44:27.554Z,166.90
2018-11-06T11:45:27.582Z,173.50
2018-11-06T11:46:27.541Z,159.90
2018-11-06T11:47:27.541Z,149.40
2018-11-06T11:48:27.634Z,143.30
2018-11-06T11:49:27.512Z,148.70
2018-11-06T11:50:27.505Z,152.10
2018-11-06T11:51:27.491Z,142.10
2018-11-06T11:52:27.495Z,135.60
2018-11-06T11:53:27.496Z,120.30
2018-11-06T11:54:27.452Z,141.00
2018-11-06T11:55:27.469Z,128.20
2018-11-06T11:56:27.491Z,172.60
2018-11-06T11:57:27.436Z,118.20
2018-11-06T11:58:27.469Z,119.10
2018-11-06T11:59:27.471Z,97.10
2018-11-06T12:00:27.409Z,128.60
2018-11-06T12:01:27.414Z,119.10
2018-11-06T12:02:27.409Z,111.30
2018-11-06T12:03:27.393Z,125.40
2018-11-06T12:04:27.490Z,116.70
2018-11-06T12:05:27.391Z,137.00
2018-11-06T12:06:27.387Z,121.70
2018-11-06T12:07:27.366Z,125.10
2018-11-06T12:08:27.362Z,124.20
2018-11-06T12:09:27.367Z,101.40
2018-11-06T12:10:27.355Z,135.70
2018-11-06T12:11:27.349Z,94.70
2018-11-06T12:12:27.348Z,104.20
2018-11-06T12:13:27.389Z,75.70
2018-11-06T12:14:27.310Z,115.00
2018-11-06T12:15:27.322Z,89.20
2018-11-06T12:16:27.320Z,116.90
2018-11-06T12:17:27.322Z,79.40
2018-11-06T12:18:27.301Z,100.10
2018-11-06T12:19:27.291Z,78.50
2018-11-06T12:20:27.293Z,90.00
2018-11-06T12:21:27.289Z,97.10
2018-11-06T12:22:27.311Z,75.80
2018-11-06T12:23:27.261Z,88.20
2018-11-06T12:24:27.351Z,84.10
2018-11-06T12:25:27.325Z,76.90
2018-11-06T12:26:27.359Z,82.90
2018-11-06T12:27:27.288Z,67.00
2018-11-06T12:28:27.231Z,62.80
2018-11-06T12:29:27.235Z,67.00
2018-11-06T12:30:27.211Z,74.30
2018-11-06T12:31:27.186Z,59.90
2018-11-06T12:32:27.225Z,39.50
2018-11-06T12:33:27.201Z,57.80
2018-11-06T12:34:27.175Z,57.60
2018-11-06T12:35:27.221Z,46.60
2018-11-06T12:36:27.172Z,46.20